Tiempo atmosférico en la estación meteorológica de Guijo De Granadilla, Cáceres (393 m.)



Fecha
DESCASC
Temp. máxima en grados centígrados (hora)
DESCASC
Temp. mínima en grados centígrados (hora)
DESCASC
Temp. media en grados centígrados
DESCASC
Racha de viento máxima en m/sg (hora)
DESCASC
Velocidad máxima media en intervalos de 10 minutos(hora)
DESCASC
Precipitaciones diarias en mm
DESCASC
Precipitaciones de 00:00 a 06:00 en mm
DESCASC
Precipitaciones de 06:00 a 12:00 en mm
DESCASC
Precipitaciones de 12:00 a 18:00 en mm
DESCASC
Precipitaciones de 18:00 a 24:00 en mm
DESCASC
04-03-2021 17 (15:10) 5.7 (08:00) 11.3 6.39 (12:50) 3.89 (13:20) 0 0 0 0 0
03-03-2021 19.5 (15:10) 5.6 (06:10) 12.5 5.56 (14:50) 3.33 (15:30) 0 0 0 0 0
02-03-2021 17.5 (16:00) 5.6 (04:00) 11.5 7.5 (16:20) 4.17 (16:30) 0 0 0 0 0
01-03-2021 16.3 (16:10) 6.5 (00:20) 11.4 9.72 (13:30) 6.11 (13:40) 0 0 0 0 0
28-02-2021 16.6 (16:30) 5.6 (00:00) 11.1 8.61 (14:30) 5 (14:50) 0 0 0 0 0
27-02-2021 21 (16:20) 6.7 (00:00) 13.8 6.67 (17:20) 3.89 (17:00) 0 0 0 0 0
26-02-2021 16.1 (16:00) 7.8 (00:00) 12 3.61 (01:40) 2.5 (22:50) 0 0 0 0 0
25-02-2021 16.1 (15:30) 8.6 (00:00) 12.4 7.5 (15:00) 3.89 (09:40) 0 0 0 0 0
24-02-2021 17.9 (16:20) 7.9 (00:00) 12.9 11.67 (13:30) 6.39 (13:30) 0 0 0 0 0
23-02-2021 16.4 (16:10) 1.8 (00:00) 9.1 9.72 (14:40) 5.56 (14:40) 0 0 0 0 0
22-02-2021 14.4 (17:00) 1.3 (00:00) 7.8 5.56 (15:30) 2.78 (15:30) 0 0 0 0 0
21-02-2021 16.4 (02:40) 6.3 (00:00) 11.3 15.83 (04:00) 8.89 (06:00) 15.6 0 10.6 5 0
20-02-2021 15.7 (22:30) 8.1 (00:00) 11.9 14.44 (14:50) 8.61 (14:40) 0 0 0 0 0
19-02-2021 17.2 (13:30) 6.7 (00:00) 12 11.39 (14:00) 6.11 (14:20) 0 0 0 0 0
18-02-2021 15.7 (16:30) 7.6 (00:00) 11.6 8.61 (14:00) 4.72 (14:20) 0 0 0 0 0
17-02-2021 17.1 (16:00) 9.2 (00:00) 13.2 7.78 (14:10) 3.33 (15:50) 0 0 0 0 0
16-02-2021 16.4 (16:10) 7.5 (00:00) 11.9 7.78 (03:40) 4.72 (02:50) 0 0 0 0 0
15-02-2021 17.6 (16:20) 4 (00:00) 10.8 10.28 (15:30) 6.67 (15:30) 0 0 0 0 0
14-02-2021 19 (15:50) 5 (00:00) 12 7.22 (14:20) 4.17 (15:00) 0 0 0 0 0
13-02-2021 18.4 (16:30) 4.1 (00:00) 11.2 5.56 (17:40) 3.61 (17:40) 0 0 0 0 0
12-02-2021 16.4 (16:40) 7.7 (00:00) 12 9.72 (00:50) 5.28 (00:50) 4.4 4.4 0 0 0
11-02-2021 15.8 (16:00) 9.9 (00:00) 12.8 8.89 (18:20) 5 (18:30) 4.2 1 2.2 0.4 0.6
10-02-2021 15.4 (15:10) 6.8 (00:00) 11.1 12.5 (03:10) 6.94 (03:10) 2 2 0 0 0
09-02-2021 11.6 (17:30) 8 (00:00) 9.8 14.17 (12:00) 8.89 (12:20) 30.4 2 19.6 7 1.8
08-02-2021 12.9 (13:40) 7 (00:00) 9.9 14.17 (13:50) 7.22 (02:30) 12.4 11.4 1 0 0
07-02-2021 11.8 (13:40) 3.8 (00:00) 7.8 9.44 (03:00) 5.83 (00:30) 5.6 0 0 1 4.6
06-02-2021 12.8 (15:00) 8.3 (00:00) 10.6 8.89 (22:00) 5.56 (23:40) 10.2 4.8 0.2 5 0.2
05-02-2021 11.7 (14:00) 7.8 (00:00) 9.8 6.39 (08:10) 3.06 (01:50) 17 2 6.4 2.2 6.4
04-02-2021 10.5 (02:40) 7.9 (00:00) 9.2 6.11 (05:10) 3.89 (14:40) 27.6 0.2 10.2 13.6 3.6

Gráficas

Temp. máximas Temp. mínimas Temp. medias Precipitaciones Rachas de viento máximas Velocidades máximas media en intervalos de 10 minutos

Datos horarios

Fecha y hora oficial Temperatura (ºC) Velocidad del viento (km/h) Dirección del viento Racha (km/h) Dirección de racha Precipitación (mm) Presión (hPa) Tendencia (hPa) Humedad (%)
2021-03-05 23:00:00 -- -- -- -- -- -- -- -- --
2021-03-05 22:00:00 10 2 Nordeste 8 Oeste 0 -- -- 80
2021-03-05 21:00:00 11.5 7 Noroeste 10 Oeste 0 -- -- 72
2021-03-05 20:00:00 13.1 5 Oeste 10 Sudoeste 0 -- -- 66
2021-03-05 19:00:00 14.7 7 Sudoeste 17 Sur 0 -- -- 62
2021-03-05 18:00:00 16.3 12 Sur 21 Sur 0 -- -- 57
2021-03-05 17:00:00 16.9 14 Sur 23 Sur 0 -- -- 57
2021-03-05 16:00:00 17.4 11 Sur 26 Sur 0 -- -- 54
2021-03-05 15:00:00 17.4 16 Sur 26 Sur 0 -- -- 55
2021-03-05 14:00:00 17.8 7 Sur 21 Sudeste 0 -- -- 49
2021-03-05 13:00:00 15.9 14 Sudeste 24 Sur 0 -- -- 54
2021-03-05 12:00:00 14.7 5 Sur 15 Sudeste 0 -- -- 59
2021-03-05 11:00:00 14.6 4 Sudeste 12 Noroeste 0 -- -- 62
2021-03-05 10:00:00 11 5 Noroeste 14 Noroeste 0 -- -- 76
2021-03-05 09:00:00 9.2 3 Oeste 14 Sur 0 -- -- 83
2021-03-05 08:00:00 7.8 4 Oeste 9 Sudoeste 0 -- -- 92
2021-03-05 07:00:00 8.2 6 Este 11 Nordeste 0 -- -- 89
2021-03-05 06:00:00 10.1 5 Este 23 Este 0 -- -- 81
2021-03-05 05:00:00 12.7 6 Sudeste 25 Este 0 -- -- 59
2021-03-05 04:00:00 12.4 10 Sudeste 31 Sudeste 0 -- -- 60
2021-03-05 03:00:00 8.8 0 Calma 5 Oeste 0 -- -- 86
2021-03-05 02:00:00 9 3 Sudoeste 9 Oeste 0 -- -- 87
2021-03-05 01:00:00 9.1 3 Norte 8 Norte 0 -- -- 88
2021-03-05 00:00:00 9.3 2 Noroeste 8 Sudoeste 0 -- -- 86
2021-03-04 23:00:00 9.8 6 Sudoeste 10 Sudoeste 0 -- -- 83
2021-03-04 22:00:00 9.8 2 Nordeste 9 Oeste 0 -- -- 82
2021-03-04 21:00:00 11.1 6 Oeste 12 Oeste 0 -- -- 75
2021-03-04 20:00:00 12.2 3 Oeste 9 Sur 0 -- -- 73
2021-03-04 19:00:00 14.1 5 Sur 11 Sur 0 -- -- 65
2021-03-04 18:00:00 15.5 6 Sudoeste 17 Sur 0 -- -- 63
2021-03-04 17:00:00 15.8 9 Sur 21 Sudoeste 0 -- -- 62
2021-03-04 16:00:00 16.8 7 Sudoeste 16 Sudoeste 0 -- -- 59
2021-03-04 15:00:00 16.6 8 Sudoeste 15 Sudoeste 0 -- -- 58
2021-03-04 14:00:00 15.5 11 Sudoeste 22 Sur 0 -- -- 64
2021-03-04 13:00:00 14.2 11 Sudoeste 23 Sur 0 -- -- 69
2021-03-04 12:00:00 12.9 6 Sudoeste 13 Oeste 0 -- -- 73
2021-03-04 11:00:00 11.4 0 Calma 7 Este 0 -- -- 80
2021-03-04 10:00:00 9.9 5 Este 9 Este 0 -- -- 88
2021-03-04 09:00:00 6.8 0 Calma 8 Este 0 -- -- 96
2021-03-04 08:00:00 5.7 5 Este 8 Este 0 -- -- 95
2021-03-04 07:00:00 6.5 3 Norte 7 Norte 0 -- -- 93
2021-03-04 06:00:00 7 6 Nordeste 10 Nordeste 0 -- -- 95
2021-03-04 05:00:00 7.3 3 Norte 11 Nordeste 0 -- -- 93
2021-03-04 04:00:00 7.5 6 Nordeste 12 Norte 0 -- -- 93
2021-03-04 03:00:00 7.4 3 Nordeste 7 Nordeste 0 -- -- 95
2021-03-04 02:00:00 7.3 3 Nordeste 6 Noroeste 0 -- -- 93
2021-03-04 01:00:00 8.6 4 Nordeste 8 Este 0 -- -- 93
2021-03-04 00:00:00 8.8 0 Calma 6 Sur 0 -- -- 92
2021-03-03 23:00:00 9.4 3 Norte 8 Nordeste 0 -- -- 90
2021-03-03 22:00:00 10.6 3 Nordeste 9 Noroeste 0 -- -- 86
2021-03-03 21:00:00 11.9 5 Noroeste 10 Sudoeste 0 -- -- 82
2021-03-03 20:00:00 13.3 5 Noroeste 12 Sudoeste 0 -- -- 77
2021-03-03 19:00:00 15.6 7 Sudoeste 17 Sur 0 -- -- 69
2021-03-03 18:00:00 17.7 10 Sur 17 Sur 0 -- -- 62
2021-03-03 17:00:00 19.3 8 Sudeste 18 Sur 0 -- -- 50
2021-03-03 16:00:00 19.4 10 Sur 19 Sur 0 -- -- 50
2021-03-03 15:00:00 19.3 7 Sur 20 Sur 0 -- -- 53
2021-03-03 14:00:00 18.3 4 Este 11 Sudeste 0 -- -- 55
2021-03-03 13:00:00 16.3 4 Oeste 11 Sudoeste 0 -- -- 61
2021-03-03 12:00:00 14.8 6 Sudoeste 12 Sur 0 -- -- 63
2021-03-03 11:00:00 13.4 3 Sur 9 Este 0 -- -- 68
2021-03-03 10:00:00 10.2 3 Nordeste 7 Nordeste 0 -- -- 84
2021-03-03 09:00:00 7.3 5 Nordeste 11 Nordeste 0 -- -- 94
2021-03-03 08:00:00 6.5 6 Nordeste 15 Nordeste 0 -- -- 92
2021-03-03 07:00:00 7 10 Nordeste 16 Nordeste 0 -- -- 93
2021-03-03 06:00:00 5.7 0 Calma 5 Noroeste 0 -- -- 93
2021-03-03 05:00:00 7.3 4 Nordeste 10 Nordeste 0 -- -- 93
2021-03-03 04:00:00 7.1 6 Este 8 Nordeste 0 -- -- 94
2021-03-03 03:00:00 7.3 6 Nordeste 8 Nordeste 0 -- -- 94
2021-03-03 02:00:00 7.7 5 Este 8 Este 0 -- -- 94
2021-03-03 01:00:00 8.1 8 Norte 10 Norte 0 -- -- 94
2021-03-03 00:00:00 7.9 4 Este 6 Este 0 -- -- 90
2021-03-02 23:00:00 8.8 0 Calma 8 Este 0 -- -- 86
2021-03-02 22:00:00 10.1 5 Nordeste 8 Este 0 -- -- 82
2021-03-02 21:00:00 11.6 3 Este 10 Sur 0 -- -- 73
2021-03-02 20:00:00 12.7 6 Sur 10 Sur 0 -- -- 69
2021-03-02 19:00:00 14.5 6 Sur 12 Sur 0 -- -- 63
2021-03-02 18:00:00 15.7 7 Sur 20 Sudeste 0 -- -- 59
2021-03-02 17:00:00 16.6 11 Sudeste 27 Sudeste 0 -- -- 55
2021-03-02 16:00:00 17.5 13 Sudeste 22 Sudeste 0 -- -- 52
2021-03-02 15:00:00 16.9 9 Sur 19 Sur 0 -- -- 55
2021-03-02 14:00:00 15.7 4 Sudoeste 13 Oeste 0 -- -- 63
2021-03-02 13:00:00 14.8 6 Oeste 13 Oeste 0 -- -- 69
2021-03-02 12:00:00 13.2 4 Noroeste 10 Oeste 0 -- -- 72
2021-03-02 11:00:00 11.3 3 Noroeste 6 Noroeste 0 -- -- 83
2021-03-02 10:00:00 9.5 2 Este 6 Norte 0 -- -- 94
2021-03-02 09:00:00 8.5 2 Nordeste 12 Noroeste 0 -- -- 92
2021-03-02 08:00:00 7.7 3 Este 5 Este 0 -- -- 95
2021-03-02 07:00:00 7.5 3 Nordeste 6 Este 0 -- -- 96
2021-03-02 06:00:00 7 3 Nordeste 6 Este 0 -- -- 96
2021-03-02 05:00:00 6.7 2 Nordeste 5 Este 0 -- -- 96
2021-03-02 04:00:00 5.6 3 Nordeste 5 Norte 0 -- -- 94
2021-03-02 03:00:00 6.4 3 Norte 8 Sudeste 0 -- -- 93
2021-03-02 02:00:00 7.1 3 Norte 4 Noroeste 0 -- -- 91
2021-03-02 01:00:00 8.4 3 Nordeste 5 Nordeste 0 -- -- 88
2021-03-02 00:00:00 9.4 3 Noroeste 14 Oeste 0 -- -- 84
2021-03-01 23:00:00 9.9 4 Noroeste 11 Noroeste 0 -- -- 83
2021-03-01 22:00:00 10.3 5 Noroeste 15 Noroeste 0 -- -- 80
2021-03-01 21:00:00 11.4 5 Sudeste 18 Sudeste 0 -- -- 69
2021-03-01 20:00:00 12.1 10 Sur 25 Sur 0 -- -- 70
2021-03-01 19:00:00 12.7 13 Sur 26 Sur 0 -- -- 68
2021-03-01 18:00:00 14.8 14 Sur 32 Sur 0 -- -- 60
2021-03-01 17:00:00 15.6 15 Sur 33 Sur 0 -- -- 58
2021-03-01 16:00:00 16.1 15 Sudeste 33 Sudeste 0 -- -- 56
2021-03-01 15:00:00 15.8 18 Sudeste 34 Sudeste 0 -- -- 56
2021-03-01 14:00:00 15.8 17 Sudeste 35 Sur 0 -- -- 57
2021-03-01 13:00:00 14.4 15 Sur 28 Sur 0 -- -- 59
2021-03-01 12:00:00 14 9 Sur 32 Sur 0 -- -- 57
2021-03-01 11:00:00 12.5 8 Sudoeste 19 Sur 0 -- -- 65
2021-03-01 10:00:00 11 4 Sudeste 10 Sudoeste 0 -- -- 78
2021-03-01 09:00:00 9.3 3 Noroeste 15 Sur 0 -- -- 84
2021-03-01 08:00:00 8.1 3 Oeste 10 Oeste 0 -- -- 87
2021-03-01 07:00:00 8.2 6 Nordeste 11 Sudeste 0 -- -- 90
2021-03-01 06:00:00 9.5 4 Sur 12 Sudeste 0 -- -- 81
2021-03-01 05:00:00 8.9 4 Oeste 9 Oeste 0 -- -- 88
2021-03-01 04:00:00 8.3 0 Calma 6 Este 0 -- -- 92
2021-03-01 03:00:00 8.1 2 Norte 6 Este 0 -- -- 91
2021-03-01 02:00:00 7.4 3 Nordeste 6 Nordeste 0 -- -- 92
2021-03-01 01:00:00 6.8 2 Nordeste 3 Norte 0 -- -- 92
2021-03-01 00:00:00 6.8 2 Nordeste 4 Nordeste 0 -- -- 88
2021-02-28 23:00:00 8.2 3 Norte 9 Sudoeste 0 -- -- 82
2021-02-28 22:00:00 10.7 5 Sudoeste 15 Oeste 0 -- -- 71
2021-02-28 21:00:00 10.8 5 Sudoeste 10 Sudoeste 0 -- -- 71
2021-02-28 20:00:00 11.7 5 Sudoeste 10 Sudoeste 0 -- -- 68
2021-02-28 19:00:00 13.8 7 Sudoeste 18 Sudoeste 0 -- -- 62
2021-02-28 18:00:00 15.6 11 Sur 29 Sur 0 -- -- 54
2021-02-28 17:00:00 16.3 17 Sur 26 Sur 0 -- -- 50
2021-02-28 16:00:00 16.5 15 Sur 28 Sudoeste 0 -- -- 54
2021-02-28 15:00:00 15.9 15 Sur 31 Sur 0 -- -- 55
2021-02-28 14:00:00 15.3 10 Sur 22 Sur 0 -- -- 57
2021-02-28 13:00:00 14.7 14 Sur 23 Sur 0 -- -- 57
2021-02-28 12:00:00 13.6 3 Sudoeste 9 Sudoeste 0 -- -- 59
2021-02-28 11:00:00 11.6 3 Sudoeste 10 Norte 0 -- -- 63
2021-02-28 10:00:00 9.6 6 Nordeste 15 Nordeste 0 -- -- 65
2021-02-28 09:00:00 7.5 4 Nordeste 8 Nordeste 0 -- -- 73
2021-02-28 08:00:00 6.4 6 Nordeste 11 Norte 0 -- -- 77
2021-02-28 07:00:00 5.6 6 Norte 15 Nordeste 0 -- -- 85
2021-02-28 06:00:00 7.9 9 Nordeste 20 Nordeste 0 -- -- 73
2021-02-28 05:00:00 9.1 9 Nordeste 20 Norte 0 -- -- 70
2021-02-28 04:00:00 9.8 13 Norte 23 Norte 0 -- -- 69
2021-02-28 03:00:00 10.5 11 Norte 18 Norte 0 -- -- 69
2021-02-28 02:00:00 11.2 7 Norte 17 Norte 0 -- -- 68
2021-02-28 01:00:00 11.9 8 Norte 19 Norte 0 -- -- 67
2021-02-28 00:00:00 12.3 10 Norte 15 Norte 0 -- -- 67
2021-02-27 23:00:00 13.6 9 Norte 19 Norte 0 -- -- 63
2021-02-27 22:00:00 14.1 10 Nordeste 22 Norte 0 -- -- 59
2021-02-27 21:00:00 13.2 8 Nordeste 12 Nordeste 0 -- -- 63
2021-02-27 20:00:00 14.6 5 Nordeste 14 Norte 0 -- -- 55
2021-02-27 19:00:00 16.5 8 Norte 17 Norte 0 -- -- 49
2021-02-27 18:00:00 18.7 11 Norte 24 Norte 0 -- -- 44
2021-02-27 17:00:00 19.9 14 Nordeste 22 Norte 0 -- -- 42
2021-02-27 16:00:00 20.7 6 Este 14 Nordeste 0 -- -- 45
2021-02-27 15:00:00 19.4 4 Nordeste 11 Norte 0 -- -- 46
2021-02-27 14:00:00 19.3 3 Sur 8 Sudoeste 0 -- -- 44
2021-02-27 13:00:00 16.8 2 Norte 13 Nordeste 0 -- -- 52
2021-02-27 12:00:00 15.1 6 Nordeste 17 Nordeste 0 -- -- 55
2021-02-27 11:00:00 12.9 11 Norte 20 Norte 0 -- -- 60
2021-02-27 10:00:00 10.6 10 Nordeste 17 Norte 0 -- -- 71
2021-02-27 09:00:00 8.8 10 Norte 17 Norte 0 -- -- 79
2021-02-27 08:00:00 7.2 8 Nordeste 14 Nordeste 0 -- -- 89
2021-02-27 07:00:00 6.7 7 Este 13 Nordeste 0 -- -- 91
2021-02-27 06:00:00 7.3 5 Nordeste 11 Norte 0 -- -- 90
2021-02-27 05:00:00 7.7 8 Nordeste 14 Nordeste 0 -- -- 93
2021-02-27 04:00:00 7.1 6 Este 9 Este 0 -- -- 94
2021-02-27 03:00:00 8.2 5 Nordeste 10 Nordeste 0 -- -- 92
2021-02-27 02:00:00 7.8 4 Nordeste 6 Norte 0 -- -- 95
2021-02-27 01:00:00 8.2 0 Calma 8 Norte 0 -- -- 94
2021-02-27 00:00:00 8.9 4 Norte 11 Noroeste 0 -- -- 92
2021-02-26 23:00:00 10.2 7 Noroeste 11 Noroeste 0 -- -- 89
2021-02-26 22:00:00 9.9 4 Sudoeste 6 Sudoeste 0 -- -- 91
2021-02-26 21:00:00 10.7 2 Noroeste 4 Norte 0 -- -- 87
2021-02-26 20:00:00 11.4 3 Norte 5 Norte 0 -- -- 84
2021-02-26 19:00:00 13.4 4 Noroeste 6 Oeste 0 -- -- 75
2021-02-26 18:00:00 15 5 Oeste 9 Oeste 0 -- -- 70
2021-02-26 17:00:00 15.9 5 Sudoeste 13 Sudoeste 0 -- -- 64
2021-02-26 16:00:00 16.1 2 Sudoeste 6 Sudeste 0 -- -- 62
2021-02-26 15:00:00 15.5 3 Sudeste 8 Este 0 -- -- 64
2021-02-26 14:00:00 14.8 2 Este 7 Norte 0 -- -- 66
2021-02-26 13:00:00 14 3 Nordeste 9 Norte 0 -- -- 66
2021-02-26 12:00:00 13 4 Norte 8 Nordeste 0 -- -- 71
2021-02-26 11:00:00 12.1 5 Noroeste 10 Noroeste 0 -- -- 78
2021-02-26 10:00:00 10 0 Calma 10 Este 0 -- -- 87
2021-02-26 09:00:00 8 5 Este 9 Noroeste 0 -- -- 92
2021-02-26 08:00:00 8 5 Oeste 8 Sudoeste 0 -- -- 90
2021-02-26 07:00:00 8.2 4 Sudoeste 7 Sudoeste 0 -- -- 91
2021-02-26 06:00:00 8.4 4 Noroeste 7 Sudoeste 0 -- -- 91
2021-02-26 05:00:00 9 3 Sur 9 Este 0 -- -- 90
2021-02-26 04:00:00 8.9 4 Este 9 Sur 0 -- -- 90
2021-02-26 03:00:00 10.1 4 Norte 9 Nordeste 0 -- -- 85
2021-02-26 02:00:00 10.4 6 Nordeste 13 Nordeste 0 -- -- 86
2021-02-26 01:00:00 9.5 7 Nordeste 11 Nordeste 0 -- -- 91
2021-02-26 00:00:00 9.7 3 Nordeste 8 Norte 0 -- -- 90
2021-02-25 23:00:00 9.9 4 Norte 8 Noroeste 0 -- -- 88
2021-02-25 22:00:00 10.6 0 Calma 8 Noroeste 0 -- -- 84
2021-02-25 21:00:00 11.4 3 Noroeste 8 Noroeste 0 -- -- 81
2021-02-25 20:00:00 12 5 Noroeste 9 Sudoeste 0 -- -- 78
2021-02-25 19:00:00 13 5 Sudoeste 7 Sudoeste 0 -- -- 72
2021-02-25 18:00:00 13.9 3 Sudoeste 13 Sudeste 0 -- -- 71
2021-02-25 17:00:00 14.8 4 Sudeste 18 Sudeste 0 -- -- 64
2021-02-25 16:00:00 15.8 8 Sudeste 21 Sudeste 0 -- -- 60
2021-02-25 15:00:00 15.5 14 Sudeste 27 Sudeste 0 -- -- 60
2021-02-25 14:00:00 14.2 5 Norte 12 Nordeste 0 -- -- 65
2021-02-25 13:00:00 13.5 2 Oeste 10 Oeste 0 -- -- 67
2021-02-25 12:00:00 11.9 2 Oeste 11 Nordeste 0 -- -- 74
2021-02-25 11:00:00 11.4 6 Este 17 Sudeste 0 -- -- 77
2021-02-25 10:00:00 11 12 Sur 22 Sur 0 -- -- 74
2021-02-25 09:00:00 9.4 10 Sudoeste 23 Sudoeste 0 -- -- 80
2021-02-25 08:00:00 9.8 0 Calma 14 Sudoeste 0 -- -- 78
2021-02-25 07:00:00 10 8 Sur 21 Sur 0 -- -- 78
2021-02-25 06:00:00 10.4 10 Sur 24 Sur 0 -- -- 75
2021-02-25 05:00:00 9.9 10 Sur 19 Sur 0 -- -- 76
2021-02-25 04:00:00 9.9 10 Sur 15 Sur 0 -- -- 76
2021-02-25 03:00:00 9.4 5 Sudoeste 8 Sudoeste 0 -- -- 79
2021-02-25 02:00:00 10.8 6 Sudeste 13 Sudeste 0 -- -- 74
2021-02-25 01:00:00 11.6 7 Sur 15 Sur 0 -- -- 74
2021-02-25 00:00:00 12.1 10 Sur 19 Sur 0 -- -- 74
2021-02-24 23:00:00 11.6 6 Sudoeste 12 Sur 0 -- -- 77
2021-02-24 22:00:00 12.1 6 Sudoeste 11 Sudoeste 0 -- -- 71
2021-02-24 21:00:00 12.3 5 Sudoeste 10 Sur 0 -- -- 71
2021-02-24 20:00:00 13.2 6 Sur 16 Sur 0 -- -- 69
2021-02-24 19:00:00 14.8 9 Sur 27 Sur 0 -- -- 62
2021-02-24 18:00:00 16.6 12 Sur 26 Sur 0 -- -- 55
2021-02-24 17:00:00 17.2 19 Sur 33 Sur 0 -- -- 53
2021-02-24 16:00:00 17.7 16 Sur 33 Sur 0 -- -- 51
2021-02-24 15:00:00 17.4 19 Sur 38 Sudeste 0 -- -- 51
2021-02-24 14:00:00 16.8 21 Sur 42 Sudeste 0 -- -- 53
2021-02-24 13:00:00 16.6 17 Sur 32 Sudeste 0 -- -- 54
2021-02-24 12:00:00 14.5 16 Sur 30 Sur 0 -- -- 60
2021-02-24 11:00:00 12.7 16 Sur 29 Sur 0 -- -- 65
2021-02-24 10:00:00 12.4 9 Sur 21 Sudeste 0 -- -- 65
2021-02-24 09:00:00 9.9 13 Sur 23 Sur 0 -- -- 71
2021-02-24 08:00:00 8.1 9 Sudoeste 21 Sur 0 -- -- 78
2021-02-24 07:00:00 8 4 Sudoeste 17 Sur 0 -- -- 77
2021-02-24 06:00:00 8.5 10 Sudoeste 20 Sudoeste 0 -- -- 76
2021-02-24 05:00:00 8.6 8 Sudoeste 12 Sudoeste 0 -- -- 73
2021-02-24 04:00:00 8.7 6 Sudoeste 13 Sur 0 -- -- 73
2021-02-24 03:00:00 9.3 7 Sudoeste 20 Sudeste 0 -- -- 70
2021-02-24 02:00:00 11.5 12 Sudeste 26 Sudeste 0 -- -- 62
2021-02-24 01:00:00 10.6 10 Sur 21 Sur 0 -- -- 67
2021-02-24 00:00:00 9 8 Sudoeste 15 Oeste 0 -- -- 71
2021-02-23 23:00:00 9.3 7 Sudoeste 15 Sudoeste 0 -- -- 69
2021-02-23 22:00:00 9.7 8 Oeste 13 Sudoeste 0 -- -- 67
2021-02-23 21:00:00 10.3 8 Sudoeste 12 Sudoeste 0 -- -- 64
2021-02-23 20:00:00 10.9 3 Sur 12 Sur 0 -- -- 60
2021-02-23 19:00:00 13.6 6 Sur 21 Sudeste 0 -- -- 52
2021-02-23 18:00:00 15.3 11 Sur 26 Sur 0 -- -- 46
2021-02-23 17:00:00 16 14 Sur 29 Sur 0 -- -- 42
2021-02-23 16:00:00 16.2 17 Sudeste 33 Sur 0 -- -- 43
2021-02-23 15:00:00 16.2 15 Sur 35 Sur 0 -- -- 40
2021-02-23 14:00:00 15.8 14 Sudeste 26 Sudeste 0 -- -- 42
2021-02-23 13:00:00 14.4 7 Sudoeste 17 Oeste 0 -- -- 50
2021-02-23 12:00:00 11.6 6 Sudoeste 12 Sur 0 -- -- 62
2021-02-23 11:00:00 9.1 4 Sudoeste 8 Oeste 0 -- -- 71
2021-02-23 10:00:00 6.3 0 Calma 4 Nordeste 0 -- -- 83
2021-02-23 09:00:00 2.3 0 Calma 5 Este 0 -- -- 96
2021-02-23 08:00:00 2.5 4 Este 10 Nordeste 0 -- -- 93
2021-02-23 07:00:00 3.3 8 Nordeste 13 Nordeste 0 -- -- 94
2021-02-23 06:00:00 3.4 7 Nordeste 12 Nordeste 0 -- -- 93
2021-02-23 05:00:00 3.5 8 Nordeste 13 Nordeste 0 -- -- 95
2021-02-23 04:00:00 2.5 3 Nordeste 6 Este 0 -- -- 94
2021-02-23 03:00:00 4.4 4 Norte 12 Nordeste 0 -- -- 93
2021-02-23 02:00:00 4.6 6 Nordeste 12 Nordeste 0 -- -- 94
2021-02-23 01:00:00 4.9 5 Nordeste 8 Norte 0 -- -- 93
2021-02-23 00:00:00 4.9 5 Nordeste 6 Nordeste 0 -- -- 94
2021-02-22 23:00:00 4.7 4 Norte 7 Nordeste 0 -- -- 89
2021-02-22 22:00:00 5 3 Norte 6 Este 0 -- -- 88
2021-02-22 21:00:00 7 2 Noroeste 4 Sudoeste 0 -- -- 80
2021-02-22 20:00:00 8.7 3 Sudoeste 8 Sudoeste 0 -- -- 71
2021-02-22 19:00:00 11.6 4 Sudoeste 11 Oeste 0 -- -- 61
2021-02-22 18:00:00 13.6 5 Sudoeste 14 Sudoeste 0 -- -- 51
2021-02-22 17:00:00 14.4 8 Sudoeste 15 Sudoeste 0 -- -- 49
2021-02-22 16:00:00 14.1 7 Sur 20 Sudoeste 0 -- -- 50
2021-02-22 15:00:00 13.2 4 Oeste 16 Sur 0 -- -- 50
2021-02-22 14:00:00 11.9 4 Noroeste 13 Noroeste 0 -- -- 51
2021-02-22 13:00:00 10.8 6 Noroeste 13 Nordeste 0 -- -- 55
2021-02-22 12:00:00 9.9 6 Nordeste 15 Nordeste 0 -- -- 58
2021-02-22 11:00:00 8.7 5 Nordeste 10 Nordeste 0 -- -- 67
2021-02-22 10:00:00 6.2 0 Calma 6 Nordeste 0 -- -- 82
2021-02-22 09:00:00 2.2 4 Noroeste 8 Sudoeste 0 -- -- 95
2021-02-22 08:00:00 1.8 3 Norte 6 Nordeste 0 -- -- 94
2021-02-22 07:00:00 1.8 0 Calma 9 Norte 0 -- -- 92
2021-02-22 06:00:00 2.2 0 Calma 5 Nordeste 0 -- -- 90
2021-02-22 05:00:00 3.4 3 Norte 10 Oeste 0 -- -- 86
2021-02-22 04:00:00 4.5 5 Noroeste 12 Noroeste 0 -- -- 84
2021-02-22 03:00:00 5.4 6 Noroeste 14 Oeste 0 -- -- 81
2021-02-22 02:00:00 6.2 8 Oeste 11 Noroeste 0 -- -- 80
2021-02-22 01:00:00 6.9 8 Noroeste 12 Noroeste 0 -- -- 80
2021-02-22 00:00:00 7 5 Noroeste 13 Noroeste 0 -- -- 81
2021-02-21 23:00:00 6.8 6 Noroeste 12 Noroeste 0 -- -- 84
2021-02-21 22:00:00 6.4 3 Noroeste 10 Noroeste 0 -- -- 90
2021-02-21 21:00:00 6.5 5 Norte 8 Noroeste 0 -- -- 90
2021-02-21 20:00:00 6.7 3 Nordeste 18 Nordeste 0 -- -- 87
2021-02-21 19:00:00 7.1 8 Nordeste 18 Nordeste 0 -- -- 83
2021-02-21 18:00:00 7 10 Nordeste 18 Este 0 -- -- 82
2021-02-21 17:00:00 7.1 9 Nordeste 15 Este 0 -- -- 88
2021-02-21 16:00:00 7 9 Nordeste 24 Nordeste 0 -- -- 89
2021-02-21 15:00:00 6.7 11 Nordeste 28 Nordeste 0 -- -- 88
2021-02-21 14:00:00 7 13 Nordeste 22 Este 2.4 -- -- 95
2021-02-21 13:00:00 6.5 8 Nordeste 16 Norte 2.6 -- -- 93
2021-02-21 12:00:00 6.9 4 Nordeste 18 Oeste 2 -- -- 93
2021-02-21 11:00:00 7.2 10 Oeste 22 Sudoeste 2.8 -- -- 88
2021-02-21 10:00:00 8.4 12 Sudoeste 30 Sudoeste 1.2 -- -- 94
2021-02-21 09:00:00 9.4 12 Sur 24 Sur 2.4 -- -- 93
2021-02-21 08:00:00 9.8 17 Sur 35 Sur 2.2 -- -- 91
2021-02-21 07:00:00 13.4 24 Sur 50 Sur 0 -- -- 60
2021-02-21 06:00:00 14.3 32 Sudeste 52 Sudeste 0 -- -- 48
2021-02-21 05:00:00 14.6 19 Sur 57 Sudeste 0 -- -- 44
2021-02-21 04:00:00 16 31 Sudeste 57 Sur 0 -- -- 36
2021-02-21 03:00:00 16.1 24 Sudeste 55 Sudeste 0 -- -- 38
2021-02-21 02:00:00 16.2 27 Sudeste 49 Sudeste 0 -- -- 37
2021-02-21 01:00:00 15.3 17 Sur 44 Sudeste 0 -- -- 44
2021-02-21 00:00:00 15.2 17 Sudeste 42 Sur 0 -- -- 43
2021-02-20 23:00:00 15.5 19 Sudeste 50 Sur 0 -- -- 38
2021-02-20 22:00:00 15.6 26 Sudeste 46 Sur 0 -- -- 35
2021-02-20 21:00:00 15.1 22 Sudeste 41 Sudeste 0 -- -- 39
2021-02-20 20:00:00 15 23 Sur 44 Sudeste 0 -- -- 39
2021-02-20 19:00:00 14.9 27 Sur 51 Sur 0 -- -- 42
2021-02-20 18:00:00 14.9 23 Sur 46 Sur 0 -- -- 44
2021-02-20 17:00:00 14.8 25 Sur 50 Sur 0 -- -- 45
2021-02-20 16:00:00 14.7 23 Sur 46 Sur 0 -- -- 49
2021-02-20 15:00:00 14.5 24 Sur 52 Sudeste 0 -- -- 50
2021-02-20 14:00:00 13.9 23 Sur 41 Sudeste 0 -- -- 57
2021-02-20 13:00:00 13.8 16 Sur 42 Sur 0 -- -- 62
2021-02-20 12:00:00 12.9 19 Sur 48 Sur 0 -- -- 67
2021-02-20 11:00:00 12.1 20 Sur 41 Sur 0 -- -- 72
2021-02-20 10:00:00 11.6 18 Sur 34 Sur 0 -- -- 74
2021-02-20 09:00:00 10.6 19 Sur 31 Sur 0 -- -- 78
2021-02-20 08:00:00 10.2 10 Sur 29 Sur 0 -- -- 78
2021-02-20 07:00:00 10.3 12 Sur 24 Sur 0 -- -- 75
2021-02-20 06:00:00 9.3 5 Sudoeste 19 Sur 0 -- -- 82
2021-02-20 05:00:00 9.5 7 Sur 22 Sur 0 -- -- 81
2021-02-20 04:00:00 10 9 Sur 23 Sudeste 0 -- -- 78
2021-02-20 03:00:00 9.9 11 Sur 19 Sudeste 0 -- -- 77
2021-02-20 02:00:00 9.9 12 Sur 23 Sur 0 -- -- 81
2021-02-20 01:00:00 9.2 11 Sudoeste 18 Sudoeste 0 -- -- 84
2021-02-20 00:00:00 8.1 6 Sudoeste 10 Sudoeste 0 -- -- 87
2021-02-19 23:00:00 9.2 0 Calma 19 Sur 0 -- -- 81
2021-02-19 22:00:00 9 6 Sudoeste 12 Sur 0 -- -- 82
2021-02-19 21:00:00 10 7 Sudoeste 10 Sudoeste 0 -- -- 79
2021-02-19 20:00:00 10.8 7 Sudoeste 13 Sur 0 -- -- 75
2021-02-19 19:00:00 13.2 9 Sur 27 Sur 0 -- -- 65
2021-02-19 18:00:00 14.9 15 Sudoeste 32 Sudoeste 0 -- -- 62
2021-02-19 17:00:00 15.5 16 Sudoeste 32 Sudoeste 0 -- -- 63
2021-02-19 16:00:00 16.8 19 Sudoeste 35 Sur 0 -- -- 57
2021-02-19 15:00:00 16.2 15 Sur 36 Sudoeste 0 -- -- 59
2021-02-19 14:00:00 17 22 Sur 41 Sudoeste 0 -- -- 49
2021-02-19 13:00:00 16.3 20 Sur 37 Sur 0 -- -- 53
2021-02-19 12:00:00 14.7 14 Sur 28 Sur 0 -- -- 65
2021-02-19 11:00:00 12.5 13 Sudoeste 21 Sudoeste 0 -- -- 71
2021-02-19 10:00:00 9.9 11 Sudoeste 16 Sudoeste 0 -- -- 84
2021-02-19 09:00:00 7.8 7 Sudoeste 12 Oeste 0 -- -- 91
2021-02-19 08:00:00 6.8 4 Oeste 9 Oeste 0 -- -- 92
2021-02-19 07:00:00 6.8 4 Oeste 7 Oeste 0 -- -- 90
2021-02-19 06:00:00 7.2 4 Oeste 6 Oeste 0 -- -- 87
2021-02-19 05:00:00 7.6 3 Sudoeste 5 Sudoeste 0 -- -- 86
2021-02-19 04:00:00 8.4 3 Oeste 10 Sudoeste 0 -- -- 84
2021-02-19 03:00:00 7.9 6 Sudoeste 9 Sur 0 -- -- 85
2021-02-19 02:00:00 8.6 3 Sudoeste 6 Oeste 0 -- -- 85
2021-02-19 01:00:00 9 6 Oeste 8 Noroeste 0 -- -- 83
2021-02-19 00:00:00 10.4 4 Sudoeste 8 Sur 0 -- -- 75
2021-02-18 23:00:00 12.4 7 Sur 19 Sur 0 -- -- 68
2021-02-18 22:00:00 11.8 5 Sur 16 Sur 0 -- -- 72
2021-02-18 21:00:00 11.2 2 Sudoeste 10 Sur 0 -- -- 77
2021-02-18 20:00:00 12.6 8 Sur 17 Sur 0 -- -- 71
2021-02-18 19:00:00 13.7 4 Sudoeste 17 Sur 0 -- -- 72
2021-02-18 18:00:00 14.9 5 Sur 18 Sur 0 -- -- 67
2021-02-18 17:00:00 15.5 12 Sudoeste 25 Sur 0 -- -- 63
2021-02-18 16:00:00 15.6 12 Sudoeste 26 Sur 0 -- -- 64
2021-02-18 15:00:00 15.2 15 Sudoeste 27 Sudoeste 0 -- -- 64
2021-02-18 14:00:00 14.8 15 Sudoeste 31 Sudoeste 0 -- -- 67
2021-02-18 13:00:00 13.9 11 Sur 23 Sur 0 -- -- 72
2021-02-18 12:00:00 12.5 8 Sur 13 Sur 0 -- -- 82
2021-02-18 11:00:00 10.4 4 Sudoeste 6 Sudoeste 0 -- -- 92
2021-02-18 10:00:00 9.5 3 Sudoeste 6 Sur 0 -- -- 97
2021-02-18 09:00:00 8.5 2 Sur 9 Oeste 0 -- -- 97
2021-02-18 08:00:00 8.1 4 Sudoeste 9 Sudoeste 0 -- -- 96
2021-02-18 07:00:00 8 3 Sudoeste 5 Sudoeste 0 -- -- 96
2021-02-18 06:00:00 8.3 4 Sudoeste 6 Sudoeste 0 -- -- 95
2021-02-18 05:00:00 8.5 5 Sur 8 Sur 0 -- -- 96
2021-02-18 04:00:00 8 6 Sudoeste 8 Sudoeste 0 -- -- 93
2021-02-18 03:00:00 8.8 5 Sudoeste 9 Sudoeste 0 -- -- 92
2021-02-18 02:00:00 9.3 4 Sudoeste 8 Sudoeste 0 -- -- 90
2021-02-18 01:00:00 9.2 4 Sudoeste 8 Sudoeste 0 -- -- 88
2021-02-18 00:00:00 10.6 6 Sudoeste 11 Sudoeste 0 -- -- 83
2021-02-17 23:00:00 10.8 6 Sudoeste 10 Sudoeste 0 -- -- 84
2021-02-17 22:00:00 11.4 8 Sur 16 Sudeste 0 -- -- 82
2021-02-17 21:00:00 11.6 7 Sudoeste 11 Sudoeste 0 -- -- 84
2021-02-17 20:00:00 12.9 6 Oeste 10 Oeste 0 -- -- 79
2021-02-17 19:00:00 14.3 4 Oeste 12 Sur 0 -- -- 75
2021-02-17 18:00:00 16.3 9 Sur 17 Sudeste 0 -- -- 66
2021-02-17 17:00:00 17 11 Sur 21 Sudoeste 0 -- -- 63
2021-02-17 16:00:00 17.1 10 Sur 22 Sur 0 -- -- 62
2021-02-17 15:00:00 15.8 11 Sur 28 Sudoeste 0 -- -- 67
2021-02-17 14:00:00 16.2 11 Sur 19 Sudoeste 0 -- -- 66
2021-02-17 13:00:00 15.6 9 Sur 19 Sur 0 -- -- 69
2021-02-17 12:00:00 14.3 8 Sur 16 Sur 0 -- -- 76
2021-02-17 11:00:00 12.7 9 Sur 17 Sur 0 -- -- 81
2021-02-17 10:00:00 11.3 4 Sudoeste 6 Sudoeste 0 -- -- 86
2021-02-17 09:00:00 10.4 0 Calma 7 Oeste 0 -- -- 90
2021-02-17 08:00:00 10.1 3 Sudoeste 7 Oeste 0 -- -- 91
2021-02-17 07:00:00 9.9 3 Sudoeste 5 Sudoeste 0 -- -- 93
2021-02-17 06:00:00 10 0 Calma 3 Noroeste 0 -- -- 94
2021-02-17 05:00:00 9.7 2 Noroeste 4 Noroeste 0 -- -- 94
2021-02-17 04:00:00 9.8 2 Nordeste 4 Este 0 -- -- 94
2021-02-17 03:00:00 9.2 2 Norte 4 Este 0 -- -- 93
2021-02-17 02:00:00 10.1 4 Este 5 Este 0 -- -- 91
2021-02-17 01:00:00 10.5 2 Sudoeste 6 Sudoeste 0 -- -- 90
2021-02-17 00:00:00 10.6 0 Calma 4 Nordeste 0 -- -- 90
2021-02-16 23:00:00 10.5 4 Norte 5 Norte 0 -- -- 89
2021-02-16 22:00:00 10.6 3 Este 5 Norte 0 -- -- 87
2021-02-16 21:00:00 11.5 3 Este 4 Sudeste 0 -- -- 83
2021-02-16 20:00:00 12 2 Norte 4 Norte 0 -- -- 80
2021-02-16 19:00:00 13.8 0 Calma 6 Sur 0 -- -- 75
2021-02-16 18:00:00 14.7 4 Sur 12 Sudeste 0 -- -- 66
2021-02-16 17:00:00 15.5 5 Sur 17 Oeste 0 -- -- 61
2021-02-16 16:00:00 16.3 8 Sudoeste 23 Sudoeste 0 -- -- 57
2021-02-16 15:00:00 15.1 10 Sudoeste 23 Sudoeste 0 -- -- 62
2021-02-16 14:00:00 15.2 14 Sur 24 Sur 0 -- -- 59
2021-02-16 13:00:00 15.2 13 Sur 24 Sur 0 -- -- 58
2021-02-16 12:00:00 13.4 15 Sur 24 Sur 0 -- -- 64
2021-02-16 11:00:00 11.8 12 Sudoeste 23 Sudoeste 0 -- -- 72
2021-02-16 10:00:00 10.7 14 Sudoeste 23 Sur 0 -- -- 75
2021-02-16 09:00:00 7.9 10 Sudoeste 15 Sudoeste 0 -- -- 85
2021-02-16 08:00:00 7.8 9 Oeste 15 Oeste 0 -- -- 85
2021-02-16 07:00:00 8.9 8 Oeste 20 Sudoeste 0 -- -- 79
2021-02-16 06:00:00 9.2 8 Oeste 15 Oeste 0 -- -- 79
2021-02-16 05:00:00 10.4 6 Oeste 21 Sur 0 -- -- 73
2021-02-16 04:00:00 11.8 10 Sur 28 Sur 0 -- -- 68
2021-02-16 03:00:00 12.8 15 Sur 27 Sudeste 0 -- -- 65
2021-02-16 02:00:00 12.8 14 Sur 24 Sudeste 0 -- -- 65
2021-02-16 01:00:00 11.8 2 Sur 17 Sur 0 -- -- 69
2021-02-16 00:00:00 12.3 7 Sur 15 Sur 0 -- -- 70
2021-02-15 23:00:00 12.1 7 Sur 17 Sur 0 -- -- 72
2021-02-15 22:00:00 11.8 7 Sudoeste 18 Oeste 0 -- -- 73
2021-02-15 21:00:00 12.2 5 Oeste 17 Oeste 0 -- -- 73
2021-02-15 20:00:00 12.7 11 Oeste 16 Sudoeste 0 -- -- 74
2021-02-15 19:00:00 14 9 Sudoeste 22 Sudoeste 0 -- -- 68
2021-02-15 18:00:00 15.8 16 Sudoeste 31 Sudoeste 0 -- -- 64
2021-02-15 17:00:00 17.1 21 Sur 36 Sur 0 -- -- 59
2021-02-15 16:00:00 17.3 20 Sur 37 Sur 0 -- -- 58
2021-02-15 15:00:00 17 23 Sudoeste 36 Sudoeste 0 -- -- 59
2021-02-15 14:00:00 16.6 19 Sur 31 Sur 0 -- -- 60
2021-02-15 13:00:00 15.8 9 Sur 17 Sur 0 -- -- 64
2021-02-15 12:00:00 13.6 5 Sur 10 Sur 0 -- -- 69
2021-02-15 11:00:00 11.5 0 Calma 6 Sur 0 -- -- 75
2021-02-15 10:00:00 8.8 2 Sur 4 Sur 0 -- -- 89
2021-02-15 09:00:00 5.1 0 Calma 5 Noroeste 0 -- -- 97
2021-02-15 08:00:00 4.9 3 Oeste 5 Nordeste 0 -- -- 96
2021-02-15 07:00:00 6.2 4 Oeste 11 Oeste 0 -- -- 91
2021-02-15 06:00:00 5.6 4 Oeste 10 Sudoeste 0 -- -- 96
2021-02-15 05:00:00 4.8 4 Este 10 Oeste 0 -- -- 95
2021-02-15 04:00:00 5.7 4 Oeste 8 Sudoeste 0 -- -- 96
2021-02-15 03:00:00 5.8 0 Calma 5 Nordeste 0 -- -- 95
2021-02-15 02:00:00 6.4 2 Nordeste 5 Nordeste 0 -- -- 94
2021-02-15 01:00:00 7.6 3 Este 13 Este 0 -- -- 90
2021-02-15 00:00:00 7.4 0 Calma 3 Este 0 -- -- 92
2021-02-14 23:00:00 8.5 0 Calma 5 Sudoeste 0 -- -- 89
2021-02-14 22:00:00 9.9 2 Sudoeste 6 Sudoeste 0 -- -- 83
2021-02-14 21:00:00 11.7 7 Sudoeste 11 Sudoeste 0 -- -- 75
2021-02-14 20:00:00 12.9 9 Sudoeste 11 Sudoeste 0 -- -- 70
2021-02-14 19:00:00 14.7 7 Sudoeste 17 Sudoeste 0 -- -- 65
2021-02-14 18:00:00 17.1 11 Sudoeste 21 Sur 0 -- -- 54
2021-02-14 17:00:00 18.5 13 Sur 21 Sur 0 -- -- 48
2021-02-14 16:00:00 18.6 12 Sur 24 Sudeste 0 -- -- 50
2021-02-14 15:00:00 18.5 15 Sur 26 Sudeste 0 -- -- 50
2021-02-14 14:00:00 17.8 11 Sur 20 Sur 0 -- -- 53
2021-02-14 13:00:00 16.2 3 Sur 10 Sudoeste 0 -- -- 62
2021-02-14 12:00:00 13.7 6 Sudoeste 9 Sudoeste 0 -- -- 70
2021-02-14 11:00:00 11.6 3 Sudeste 13 Nordeste 0 -- -- 78
2021-02-14 10:00:00 8.2 8 Nordeste 16 Nordeste 0 -- -- 89
2021-02-14 09:00:00 6.2 9 Nordeste 14 Nordeste 0 -- -- 95
2021-02-14 08:00:00 5.8 7 Nordeste 12 Nordeste 0 -- -- 94
2021-02-14 07:00:00 5.8 8 Nordeste 12 Nordeste 0 -- -- 96
2021-02-14 06:00:00 5 5 Nordeste 10 Nordeste 0 -- -- 96
2021-02-14 05:00:00 6 0 Calma 8 Norte 0 -- -- 95
2021-02-14 04:00:00 6.1 4 Norte 8 Nordeste 0 -- -- 96
2021-02-14 03:00:00 6.6 5 Nordeste 6 Nordeste 0 -- -- 96
2021-02-14 02:00:00 6.7 4 Nordeste 6 Nordeste 0 -- -- 96
2021-02-14 01:00:00 6.4 4 Este 8 Sur 0 -- -- 94
2021-02-14 00:00:00 7.4 4 Norte 6 Nordeste 0 -- -- 93
2021-02-13 23:00:00 8.2 3 Nordeste 7 Noroeste 0 -- -- 92
2021-02-13 22:00:00 9.3 4 Noroeste 6 Noroeste 0 -- -- 91
2021-02-13 21:00:00 11 0 Calma 12 Oeste 0 -- -- 81
2021-02-13 20:00:00 12.3 2 Este 13 Oeste 0 -- -- 78
2021-02-13 19:00:00 14.3 7 Oeste 15 Oeste 0 -- -- 69
2021-02-13 18:00:00 16.3 9 Oeste 20 Oeste 0 -- -- 62
2021-02-13 17:00:00 18.1 8 Oeste 13 Oeste 0 -- -- 52
2021-02-13 16:00:00 17.7 6 Oeste 16 Sudoeste 0 -- -- 55
2021-02-13 15:00:00 17.1 3 Nordeste 10 Norte 0 -- -- 49
2021-02-13 14:00:00 16.1 2 Sudoeste 7 Oeste 0 -- -- 53
2021-02-13 13:00:00 13.9 3 Nordeste 6 Norte 0 -- -- 66
2021-02-13 08:00:00 -- -- -- -- -- -- -- -- --
2021-02-13 07:00:00 -- -- -- -- -- -- -- -- --
2021-02-13 06:00:00 5.5 4 Nordeste 5 Nordeste 0 -- -- 97
2021-02-13 05:00:00 5.4 3 Nordeste 8 Este 0 -- -- 96
2021-02-13 04:00:00 5.7 0 Calma 6 Oeste 0 -- -- 93
2021-02-13 03:00:00 6.7 5 Oeste 7 Oeste 0 -- -- 94
2021-02-13 02:00:00 7.4 3 Nordeste 6 Nordeste 0 -- -- 92
2021-02-13 01:00:00 7.8 2 Norte 6 Norte 0 -- -- 91
2021-02-13 00:00:00 8.4 5 Norte 9 Norte 0 -- -- 90
2021-02-12 23:00:00 8.4 3 Norte 7 Norte 0 -- -- 89
2021-02-12 22:00:00 8.9 5 Nordeste 7 Nordeste 0 -- -- 89
2021-02-12 21:00:00 9.5 4 Nordeste 9 Este 0 -- -- 84
2021-02-12 20:00:00 11.7 8 Noroeste 9 Noroeste 0 -- -- 70
2021-02-12 19:00:00 13 0 Calma 9 Noroeste 0 -- -- 70
2021-02-12 18:00:00 15.4 3 Norte 12 Nordeste 0 -- -- 56
2021-02-12 17:00:00 16.3 4 Norte 15 Noroeste 0 -- -- 54
2021-02-12 16:00:00 15.9 5 Este 14 Nordeste 0 -- -- 55
2021-02-12 15:00:00 15.3 6 Nordeste 19 Noroeste 0 -- -- 63
2021-02-12 14:00:00 14.7 8 Norte 15 Noroeste 0 -- -- 63
2021-02-12 13:00:00 13.5 5 Este 11 Este 0 -- -- 73
2021-02-12 12:00:00 12.9 3 Sudeste 7 Sudeste 0 -- -- 74
2021-02-12 11:00:00 11.1 0 Calma 7 Sur 0 -- -- 87
2021-02-12 10:00:00 9.9 4 Sudoeste 9 Sudoeste 0 -- -- 98
2021-02-12 09:00:00 8 3 Sur 9 Sudoeste 0 -- -- 98
2021-02-12 08:00:00 8.3 8 Sudoeste 12 Sudoeste 0 -- -- 96
2021-02-12 07:00:00 8.9 6 Sudoeste 12 Sudoeste 0 -- -- 96
2021-02-12 06:00:00 10 3 Sudoeste 15 Sudoeste 0 -- -- 96
2021-02-12 05:00:00 11.1 12 Sudoeste 23 Sudoeste 0 -- -- 95
2021-02-12 04:00:00 11.8 15 Sudoeste 27 Sudoeste 0 -- -- 97
2021-02-12 03:00:00 11.9 14 Sudoeste 26 Sur 0.4 -- -- 97
2021-02-12 02:00:00 12 13 Sudoeste 30 Sur 3.4 -- -- 96
2021-02-12 01:00:00 12.2 16 Sur 35 Sur 0.6 -- -- 96
2021-02-12 00:00:00 12.4 14 Sur 26 Sur 0.6 -- -- 95
2021-02-11 23:00:00 12.9 13 Sur 23 Sur 0 -- -- 91
2021-02-11 22:00:00 13 12 Sur 27 Sur 0 -- -- 90
2021-02-11 21:00:00 13.1 13 Sur 26 Sur 0 -- -- 91
2021-02-11 20:00:00 12.9 11 Sur 23 Sur 0 -- -- 93
2021-02-11 19:00:00 12.9 8 Sur 32 Sur 0 -- -- 91
2021-02-11 18:00:00 14.6 13 Sur 23 Sur 0 -- -- 84
2021-02-11 17:00:00 15 14 Sur 23 Sur 0 -- -- 83
2021-02-11 16:00:00 15.8 15 Sur 26 Sur 0 -- -- 83
2021-02-11 15:00:00 14.5 12 Sur 23 Sur 0 -- -- 90
2021-02-11 14:00:00 13.1 10 Sur 19 Sudoeste 0 -- -- 97
2021-02-11 13:00:00 12.3 8 Sur 19 Sur 0.4 -- -- 98
2021-02-11 12:00:00 11.8 9 Sur 19 Sur 0 -- -- 98
2021-02-11 11:00:00 11.8 9 Sur 18 Sur 0.4 -- -- 98
2021-02-11 10:00:00 11.3 6 Sudoeste 12 Sudoeste 0.4 -- -- 98
2021-02-11 09:00:00 10.5 2 Sudoeste 3 Sudoeste 0.4 -- -- 98
2021-02-11 08:00:00 10.3 0 Calma 2 Sudoeste 0.6 -- -- 98
2021-02-11 07:00:00 10.2 0 Calma 3 Norte 0.4 -- -- 98
2021-02-11 06:00:00 10 2 Norte 5 Nordeste 0.2 -- -- 97
2021-02-11 05:00:00 9.9 3 Norte 5 Norte 0.4 -- -- 97
2021-02-11 04:00:00 10 3 Norte 6 Este 0 -- -- 97
2021-02-11 03:00:00 10 3 Norte 5 Norte 0.2 -- -- 96
2021-02-11 02:00:00 10 2 Noroeste 4 Oeste 0.2 -- -- 96
2021-02-11 01:00:00 10.1 2 Sudoeste 5 Sudoeste 0 -- -- 95
2021-02-11 00:00:00 10.5 4 Sur 9 Sur 0 -- -- 91
2021-02-10 23:00:00 10.8 0 Calma 4 Este 0 -- -- 87
2021-02-10 22:00:00 10.8 2 Nordeste 5 Sur 0 -- -- 87
2021-02-10 21:00:00 11.1 2 Sur 8 Sur 0 -- -- 84
2021-02-10 20:00:00 10.9 4 Sur 8 Sudoeste 0 -- -- 84
2021-02-10 19:00:00 12.1 4 Sudoeste 10 Sudoeste 0 -- -- 77
2021-02-10 18:00:00 13 4 Sudoeste 16 Sudoeste 0 -- -- 70
2021-02-10 17:00:00 14.4 11 Sudoeste 21 Sudoeste 0 -- -- 62
2021-02-10 16:00:00 15.2 12 Sudoeste 22 Oeste 0 -- -- 60
2021-02-10 15:00:00 15.2 9 Sudoeste 23 Sudoeste 0 -- -- 56
2021-02-10 14:00:00 14.9 10 Sudoeste 23 Sudoeste 0 -- -- 57
2021-02-10 13:00:00 13.5 10 Sudoeste 19 Sudoeste 0 -- -- 65
2021-02-10 12:00:00 12.6 5 Oeste 12 Oeste 0 -- -- 67
2021-02-10 11:00:00 11.9 0 Calma 10 Este 0 -- -- 75
2021-02-10 10:00:00 9.3 0 Calma 10 Este 0 -- -- 90
2021-02-10 09:00:00 6.8 4 Nordeste 12 Sudoeste 0 -- -- 94
2021-02-10 08:00:00 7.5 3 Este 12 Oeste 0 -- -- 96
2021-02-10 07:00:00 7.6 5 Sudeste 9 Sur 0 -- -- 96
2021-02-10 06:00:00 8.3 3 Oeste 15 Sudoeste 0 -- -- 95
2021-02-10 05:00:00 8.7 12 Sudoeste 23 Sudoeste 0.2 -- -- 95
2021-02-10 04:00:00 9.2 15 Sudoeste 45 Sudoeste 0.4 -- -- 93
2021-02-10 03:00:00 9.2 25 Sudoeste 44 Sudoeste 1.2 -- -- 92
2021-02-10 02:00:00 9 18 Sudoeste 41 Sudoeste 0 -- -- 91
2021-02-10 01:00:00 8.6 18 Sudoeste 31 Sudoeste 0.2 -- -- 95
2021-02-10 00:00:00 8.7 17 Sudoeste 39 Sudoeste 0.2 -- -- 92
2021-02-09 23:00:00 8.8 13 Sudoeste 32 Sudoeste 0 -- -- 92
2021-02-09 22:00:00 8.5 16 Sudoeste 29 Sur 0 -- -- 92
2021-02-09 21:00:00 8.3 9 Sudoeste 22 Sudoeste 0 -- -- 93
2021-02-09 20:00:00 8.9 8 Sudoeste 30 Sudoeste 0 -- -- 90
2021-02-09 19:00:00 10 19 Sudoeste 40 Sudoeste 1.6 -- -- 90
2021-02-09 18:00:00 11.3 20 Sudoeste 46 Sudoeste 0 -- -- 79
2021-02-09 17:00:00 11.3 21 Sudoeste 41 Sudoeste 0 -- -- 85
2021-02-09 16:00:00 11 14 Sur 26 Sudoeste 0 -- -- 87
2021-02-09 15:00:00 10.2 6 Sudoeste 18 Sudoeste 0.4 -- -- 94
2021-02-09 14:00:00 9.7 6 Sudoeste 30 Oeste 2.2 -- -- 94
2021-02-09 13:00:00 10.1 19 Sudoeste 51 Sudoeste 4.4 -- -- 96
2021-02-09 12:00:00 9.7 28 Sudoeste 51 Sudoeste 5.4 -- -- 96
2021-02-09 11:00:00 9.5 26 Sur 46 Sur 3.4 -- -- 96
2021-02-09 10:00:00 9.4 22 Sur 41 Sur 2 -- -- 96
2021-02-09 09:00:00 9.1 21 Sur 34 Sur 4 -- -- 97
2021-02-09 08:00:00 9 13 Sur 31 Sur 4 -- -- 97
2021-02-09 07:00:00 9 15 Sur 34 Sur 0.8 -- -- 97
2021-02-09 06:00:00 8.9 19 Sur 41 Sur 0.8 -- -- 97
2021-02-09 05:00:00 8.5 17 Sur 33 Sur 0.8 -- -- 97
2021-02-09 04:00:00 8.2 14 Sur 32 Sur 0.2 -- -- 96
2021-02-09 03:00:00 8 12 Sur 26 Sur 0 -- -- 96
2021-02-09 02:00:00 8.2 11 Sur 21 Sudoeste 0.2 -- -- 94
2021-02-09 01:00:00 8.2 7 Sur 17 Sur 0 -- -- 88
2021-02-09 00:00:00 8 7 Sudoeste 13 Sur 0 -- -- 86
2021-02-08 23:00:00 8.2 7 Sudoeste 17 Sudoeste 0 -- -- 81
2021-02-08 22:00:00 8.5 10 Sudoeste 15 Sudoeste 0 -- -- 77
2021-02-08 21:00:00 9.1 7 Sudoeste 18 Sudoeste 0 -- -- 77
2021-02-08 20:00:00 9.4 10 Sudoeste 28 Sudoeste 0 -- -- 75
2021-02-08 19:00:00 10.4 12 Oeste 31 Oeste 0 -- -- 70
2021-02-08 18:00:00 11.3 15 Sudoeste 33 Oeste 0 -- -- 67
2021-02-08 17:00:00 12 20 Sudoeste 35 Oeste 0 -- -- 65
2021-02-08 16:00:00 11.7 21 Sudoeste 39 Oeste 0 -- -- 68
2021-02-08 15:00:00 12.4 20 Sudoeste 36 Sudoeste 0 -- -- 68
2021-02-08 14:00:00 12.5 23 Sudoeste 51 Sudoeste 0 -- -- 67
2021-02-08 13:00:00 11.7 19 Oeste 36 Oeste 0 -- -- 73
2021-02-08 12:00:00 10.1 13 Sudoeste 22 Sudoeste 0.2 -- -- 85
2021-02-08 11:00:00 8 4 Sudoeste 8 Sur 0 -- -- 97
2021-02-08 10:00:00 7.3 4 Sur 15 Sudoeste 0.6 -- -- 96
2021-02-08 09:00:00 7.2 9 Sudoeste 20 Sudoeste 0.2 -- -- 95
2021-02-08 08:00:00 7.2 7 Sudoeste 17 Sudoeste 0 -- -- 96
2021-02-08 07:00:00 7 4 Sur 15 Sudoeste 0 -- -- 94
2021-02-08 06:00:00 7.9 9 Sudoeste 18 Oeste 0 -- -- 96
2021-02-08 05:00:00 9.1 0 Calma 27 Sudoeste 0.4 -- -- 98
2021-02-08 04:00:00 9.3 14 Sudoeste 27 Sur 1 -- -- 97
2021-02-08 03:00:00 9.3 18 Sur 41 Sudoeste 2.6 -- -- 97
2021-02-08 02:00:00 8.9 18 Sudoeste 35 Sur 4.6 -- -- 98
2021-02-08 01:00:00 8.6 19 Sur 35 Sur 2.8 -- -- 98
2021-02-08 00:00:00 7.8 14 Sur 26 Sur 1.8 -- -- 98
2021-02-07 23:00:00 7.5 10 Sur 20 Sur 2 -- -- 97
2021-02-07 22:00:00 7.3 10 Sur 20 Sur 0.4 -- -- 97
2021-02-07 21:00:00 7.3 6 Sur 16 Sur 0.4 -- -- 96
2021-02-07 20:00:00 7.2 5 Sudeste 9 Sudeste 0 -- -- 95
2021-02-07 19:00:00 7.2 4 Sur 11 Sudoeste 0 -- -- 93
2021-02-07 18:00:00 7.4 6 Sur 15 Sudoeste 0.2 -- -- 92
2021-02-07 17:00:00 7.9 9 Sudoeste 23 Sudoeste 0.6 -- -- 90
2021-02-07 16:00:00 9.1 10 Sudoeste 22 Sudoeste 0.2 -- -- 86
2021-02-07 15:00:00 10.6 14 Sudoeste 28 Sudoeste 0 -- -- 69
2021-02-07 14:00:00 11.6 13 Oeste 22 Oeste 0 -- -- 54
2021-02-07 13:00:00 11.2 6 Oeste 16 Sudoeste 0 -- -- 58
2021-02-07 12:00:00 10.3 3 Noroeste 11 Norte 0 -- -- 65
2021-02-07 11:00:00 9 0 Calma 5 Sudeste 0 -- -- 75
2021-02-07 10:00:00 6.6 2 Sur 5 Sur 0 -- -- 84
2021-02-07 09:00:00 3.9 0 Calma 12 Norte 0 -- -- 93
2021-02-07 08:00:00 3.8 6 Norte 10 Norte 0 -- -- 92
2021-02-07 07:00:00 4.7 7 Norte 12 Norte 0 -- -- 88
2021-02-07 06:00:00 4.5 4 Norte 14 Norte 0 -- -- 87
2021-02-07 05:00:00 6.4 9 Norte 20 Norte 0 -- -- 82
2021-02-07 04:00:00 7.2 13 Norte 27 Nordeste 0 -- -- 77
2021-02-07 03:00:00 7.7 18 Norte 34 Norte 0 -- -- 75
2021-02-07 02:00:00 8 17 Norte 28 Norte 0 -- -- 75
2021-02-07 01:00:00 8.1 16 Norte 33 Nordeste 0 -- -- 77
2021-02-07 00:00:00 8.3 16 Norte 30 Norte 0 -- -- 78
2021-02-06 23:00:00 8.6 18 Norte 30 Norte 0 -- -- 76
2021-02-06 22:00:00 8.5 18 Norte 32 Nordeste 0 -- -- 80
2021-02-06 21:00:00 8.5 15 Norte 25 Norte 0 -- -- 87
2021-02-06 20:00:00 8.9 12 Norte 19 Norte 0 -- -- 90
2021-02-06 19:00:00 9.5 4 Norte 8 Nordeste 0.2 -- -- 94
2021-02-06 18:00:00 9.9 2 Nordeste 4 Este 0.6 -- -- 93
2021-02-06 17:00:00 10.4 2 Este 10 Sudoeste 3 -- -- 88
2021-02-06 16:00:00 12.1 4 Sur 9 Sur 0 -- -- 85
2021-02-06 15:00:00 12.8 3 Sudeste 7 Este 0 -- -- 79
2021-02-06 14:00:00 10.6 4 Sudoeste 8 Sudoeste 1.4 -- -- 92
2021-02-06 13:00:00 10.3 3 Este 5 Este 0 -- -- 92
2021-02-06 12:00:00 10.1 4 Sudoeste 6 Sudoeste 0 -- -- 92
2021-02-06 11:00:00 9.5 0 Calma 4 Sudoeste 0.2 -- -- 97
2021-02-06 10:00:00 9.1 0 Calma 3 Nordeste 0 -- -- 98
2021-02-06 09:00:00 8.6 0 Calma 3 Noroeste 0 -- -- 98
2021-02-06 08:00:00 8.5 2 Oeste 3 Sur 0 -- -- 98
2021-02-06 07:00:00 8.7 3 Sur 7 Sur 0 -- -- 98
2021-02-06 06:00:00 8.7 3 Sur 12 Sur 0.2 -- -- 98
2021-02-06 05:00:00 8.8 4 Sur 8 Sudeste 0.2 -- -- 98
2021-02-06 04:00:00 8.7 0 Calma 5 Nordeste 0.4 -- -- 98
2021-02-06 03:00:00 8.8 3 Este 4 Este 0.6 -- -- 98
2021-02-06 02:00:00 8.7 0 Calma 3 Nordeste 1.4 -- -- 98
2021-02-06 01:00:00 8.8 0 Calma 5 Sur 2 -- -- 98
2021-02-06 00:00:00 8.8 0 Calma 3 Sudeste 1.8 -- -- 98
2021-02-05 23:00:00 9 3 Este 5 Sur 0.2 -- -- 98
2021-02-05 22:00:00 9.1 3 Sudoeste 6 Sudoeste 0.2 -- -- 97
2021-02-05 21:00:00 9.4 0 Calma 14 Sudoeste 1.2 -- -- 97
2021-02-05 20:00:00 9.9 7 Sudoeste 17 Sudoeste 2.2 -- -- 97
2021-02-05 19:00:00 10.2 4 Sudoeste 6 Sudoeste 0.8 -- -- 96
2021-02-05 18:00:00 10.6 0 Calma 6 Noroeste 0 -- -- 94
2021-02-05 17:00:00 10.8 4 Noroeste 7 Oeste 0.8 -- -- 93
2021-02-05 16:00:00 10.8 7 Sudoeste 15 Sudoeste 1 -- -- 94
2021-02-05 15:00:00 11.3 9 Sudoeste 14 Sudoeste 0.4 -- -- 96
2021-02-05 14:00:00 11.7 5 Sudoeste 10 Norte 0 -- -- 90
2021-02-05 13:00:00 11.4 5 Nordeste 11 Norte 0 -- -- 91
2021-02-05 12:00:00 11.2 2 Nordeste 6 Norte 0 -- -- 93
2021-02-05 11:00:00 10.8 5 Norte 12 Norte 0 -- -- 92
2021-02-05 10:00:00 10.1 6 Norte 14 Norte 0.2 -- -- 96
2021-02-05 09:00:00 10.1 4 Nordeste 23 Sudeste 1.4 -- -- 94
2021-02-05 08:00:00 10 10 Sudeste 18 Sur 2 -- -- 97
2021-02-05 07:00:00 8.8 5 Este 9 Este 2.8 -- -- 95
2021-02-05 06:00:00 9.1 4 Nordeste 17 Nordeste 0 -- -- 91
2021-02-05 05:00:00 8.3 8 Norte 18 Norte 0.2 -- -- 95
2021-02-05 04:00:00 8.4 8 Nordeste 19 Nordeste 0.2 -- -- 92
2021-02-05 03:00:00 8.4 9 Norte 14 Norte 0 -- -- 92
2021-02-05 02:00:00 8.2 10 Norte 17 Norte 0 -- -- 94
2021-02-05 01:00:00 7.8 3 Norte 8 Nordeste 1.6 -- -- 97
2021-02-05 00:00:00 8.3 3 Noroeste 14 Norte 0.6 -- -- 94
2021-02-04 23:00:00 7.9 4 Nordeste 12 Nordeste 0 -- -- 96
2021-02-04 22:00:00 7.9 4 Norte 14 Este 0 -- -- 97
2021-02-04 21:00:00 7.9 5 Este 13 Sudoeste 2.2 -- -- 96
2021-02-04 20:00:00 7.9 9 Sudoeste 13 Sudoeste 0.2 -- -- 95
2021-02-04 19:00:00 7.9 9 Norte 15 Nordeste 0.6 -- -- 95
2021-02-04 18:00:00 8.4 8 Nordeste 18 Norte 0.2 -- -- 94
2021-02-04 17:00:00 8.4 8 Nordeste 21 Nordeste 1.2 -- -- 94
2021-02-04 16:00:00 8.2 12 Nordeste 18 Este 1.6 -- -- 92
2021-02-04 15:00:00 9 10 Nordeste 22 Nordeste 1.2 -- -- 93
2021-02-04 14:00:00 8.7 9 Nordeste 15 Este 3.6 -- -- 97
2021-02-04 13:00:00 9.1 4 Norte 9 Norte 5.8 -- -- 97
2021-02-04 12:00:00 9.3 4 Norte 7 Nordeste 2.4 -- -- 97
2021-02-04 11:00:00 9.1 0 Calma 9 Oeste 4.6 -- -- 97
2021-02-04 10:00:00 9.1 3 Sudoeste 9 Sudoeste 2.6 -- -- 97
2021-02-04 09:00:00 9 4 Sudoeste 10 Sudoeste 0 -- -- 95
2021-02-04 08:00:00 9 6 Sudoeste 13 Sudoeste 0.4 -- -- 94
2021-02-04 07:00:00 9.1 7 Sudoeste 16 Sur 0.2 -- -- 93
2021-02-04 06:00:00 9.3 7 Sur 22 Sudeste 0 -- -- 93
2021-02-04 05:00:00 9.6 12 Sudeste 21 Sur 0 -- -- 95
2021-02-04 04:00:00 10 8 Sur 20 Sur 0 -- -- 96
2021-02-04 03:00:00 10.4 9 Sur 17 Sur 0.2 -- -- 97
2021-02-04 02:00:00 10.3 10 Sur 17 Sur 0 -- -- 97
2021-02-04 01:00:00 10.3 5 Sudoeste 8 Sudoeste 0 -- -- 97
2021-02-04 00:00:00 10.3 4 Sur 13 Sur 0 -- -- 96